createdAt,value
2023-05-19T07:58:21.482Z,100885.00
2023-05-19T08:00:59.758Z,100882.20
2023-05-19T08:03:37.911Z,100882.40
2023-05-19T08:06:15.810Z,100876.80
2023-05-19T08:08:52.056Z,100884.40
2023-05-19T08:11:29.237Z,100885.20
2023-05-19T08:14:05.711Z,100875.60
2023-05-19T08:16:46.254Z,100877.80
2023-05-19T08:19:22.822Z,100882.60
2023-05-19T08:22:01.784Z,100892.60
2023-05-19T08:24:38.252Z,100885.80
2023-05-19T08:27:16.412Z,100886.20
2023-05-19T08:29:53.248Z,100884.00
2023-05-19T08:32:30.375Z,100890.80
2023-05-19T08:35:08.009Z,100891.00
2023-05-19T08:37:45.211Z,100890.60
2023-05-19T08:40:23.998Z,100881.20
2023-05-19T08:43:02.245Z,100897.40
2023-05-19T08:45:39.600Z,100898.40
2023-05-19T08:48:18.742Z,100896.80
2023-05-19T08:51:09.054Z,100898.80
2023-05-19T08:53:51.692Z,100908.20
2023-05-19T08:56:29.584Z,100898.40
2023-05-19T08:59:08.456Z,100900.00
2023-05-19T09:01:47.419Z,100893.80
2023-05-19T09:04:25.079Z,100898.80
2023-05-19T09:07:04.267Z,100913.80
2023-05-19T09:09:43.452Z,100903.40
2023-05-19T09:12:21.168Z,100901.20
2023-05-19T09:14:59.572Z,100911.00
2023-05-19T09:17:36.078Z,100912.40
2023-05-19T09:20:16.850Z,100913.00
2023-05-19T09:22:54.428Z,100909.60
2023-05-19T09:25:32.293Z,100906.40
2023-05-19T09:28:11.317Z,100907.60
2023-05-19T09:30:48.866Z,100904.40
2023-05-19T09:33:27.244Z,100913.00
2023-05-19T09:36:03.774Z,100913.00
2023-05-19T09:38:40.315Z,100910.80
2023-05-19T09:41:19.370Z,100914.20
2023-05-19T09:44:02.269Z,100909.40
2023-05-19T09:46:39.062Z,100910.80
2023-05-19T09:49:20.702Z,100921.60
2023-05-19T09:52:01.068Z,100916.80
2023-05-19T09:54:39.966Z,100918.20
2023-05-19T09:57:16.039Z,100917.20
2023-05-19T09:59:55.021Z,100904.60
2023-05-19T10:02:34.055Z,100905.80
2023-05-19T10:05:13.379Z,100898.40
2023-05-19T10:07:52.084Z,100907.20
2023-05-19T10:10:30.278Z,100902.60
2023-05-19T10:13:08.027Z,100914.20
2023-05-19T10:15:57.236Z,100911.60
2023-05-19T10:18:37.737Z,100910.40
2023-05-19T10:21:16.409Z,100903.20
2023-05-19T10:23:53.055Z,100898.80
2023-05-19T10:26:31.509Z,100898.60
2023-05-19T10:29:10.499Z,100892.40
2023-05-19T10:31:50.422Z,100899.20
2023-05-19T10:35:01.346Z,100900.20
2023-05-19T10:37:48.727Z,100894.00
2023-05-19T10:40:32.562Z,100898.40
2023-05-19T10:43:34.647Z,100895.60
2023-05-19T10:46:11.687Z,100898.00
2023-05-19T10:48:52.064Z,100893.40
2023-05-19T10:51:33.683Z,100889.40
2023-05-19T10:54:14.428Z,100887.40
2023-05-19T10:56:51.666Z,100879.60
2023-05-19T10:59:41.040Z,100876.80
2023-05-19T11:02:44.262Z,100877.00
2023-05-19T11:05:31.566Z,100873.40
2023-05-19T11:08:12.437Z,100874.40
2023-05-19T11:10:55.216Z,100865.60
2023-05-19T11:13:36.763Z,100873.60
2023-05-19T11:16:20.939Z,100873.00
2023-05-19T11:18:57.940Z,100870.00
2023-05-19T11:21:53.600Z,100871.40
2023-05-19T11:24:52.536Z,100865.40
2023-05-19T11:27:35.277Z,100870.80
2023-05-19T11:30:21.352Z,100861.20
2023-05-19T11:32:59.214Z,100860.40
2023-05-19T11:35:38.659Z,100858.80
2023-05-19T11:38:16.245Z,100859.80
2023-05-19T11:40:56.097Z,100858.60
2023-05-19T11:43:33.977Z,100861.60
2023-05-19T11:46:12.660Z,100855.40
2023-05-19T11:48:51.439Z,100858.00
2023-05-19T11:51:29.167Z,100853.60
2023-05-19T11:54:05.858Z,100864.80
2023-05-19T11:56:47.969Z,100853.80
2023-05-19T11:59:36.113Z,100862.40
2023-05-19T12:02:27.872Z,100861.60
2023-05-19T12:05:05.631Z,100851.40
2023-05-19T12:07:44.695Z,100861.60
2023-05-19T12:10:22.302Z,100848.60
2023-05-19T12:13:02.406Z,100846.00
2023-05-19T12:15:38.218Z,100853.40
2023-05-19T12:18:15.415Z,100851.60
2023-05-19T12:20:52.460Z,100848.00
2023-05-19T12:23:31.108Z,100852.00
2023-05-19T12:26:11.147Z,100851.40
2023-05-19T12:28:50.338Z,100848.80
2023-05-19T12:31:27.938Z,100850.20
2023-05-19T12:34:07.280Z,100843.60
2023-05-19T12:36:46.782Z,100839.20
2023-05-19T12:39:23.643Z,100843.60
2023-05-19T12:42:06.740Z,100849.00
2023-05-19T12:44:51.147Z,100847.20
2023-05-19T12:47:34.095Z,100849.40
2023-05-19T12:50:15.311Z,100846.40
2023-05-19T12:52:54.292Z,100848.20
2023-05-19T12:55:31.409Z,100847.00
2023-05-19T12:58:14.384Z,100848.60
2023-05-19T13:00:52.049Z,100841.60
2023-05-19T13:03:28.918Z,100842.00
2023-05-19T13:06:05.920Z,100837.60
2023-05-19T13:08:44.171Z,100833.20
2023-05-19T13:11:21.139Z,100834.00
2023-05-19T13:13:57.792Z,100833.20
2023-05-19T13:16:34.869Z,100830.60
2023-05-19T13:19:24.476Z,100830.40
2023-05-19T13:22:02.582Z,100829.20
2023-05-19T13:24:39.716Z,100825.60
2023-05-19T13:27:16.835Z,100833.40
2023-05-19T13:29:53.671Z,100827.40
2023-05-19T13:32:30.477Z,100829.80
2023-05-19T13:35:07.199Z,100833.20
2023-05-19T13:37:44.411Z,100830.40
2023-05-19T13:40:24.125Z,100830.80
2023-05-19T13:43:01.560Z,100832.40
2023-05-19T13:45:38.920Z,100833.80
2023-05-19T13:48:15.969Z,100831.20
2023-05-19T13:50:54.504Z,100836.20
2023-05-19T13:53:33.053Z,100830.00
2023-05-19T13:56:12.782Z,100832.80
2023-05-19T13:58:49.691Z,100828.20
2023-05-19T14:01:26.947Z,100823.60
2023-05-19T14:04:05.365Z,100824.20
2023-05-19T14:06:42.293Z,100830.80
2023-05-19T14:09:19.362Z,100835.00
2023-05-19T14:11:56.231Z,100838.40
2023-05-19T14:14:35.018Z,100843.80
2023-05-19T14:17:11.589Z,100849.20
2023-05-19T14:19:49.447Z,100853.80
2023-05-19T14:22:26.388Z,100856.40
2023-05-19T14:25:03.095Z,100857.00
2023-05-19T14:27:40.555Z,100858.80
2023-05-19T14:30:20.260Z,100859.40
2023-05-19T14:32:58.727Z,100853.40
2023-05-19T14:35:36.483Z,100855.20
2023-05-19T14:38:12.797Z,100856.60
2023-05-19T14:40:49.771Z,100855.60
2023-05-19T14:43:26.129Z,100855.40
2023-05-19T14:46:02.540Z,100853.20
2023-05-19T14:48:39.078Z,100856.80
2023-05-19T14:51:17.192Z,100861.20
2023-05-19T14:53:53.906Z,100857.20
2023-05-19T14:56:30.234Z,100860.00
2023-05-19T14:59:07.146Z,100862.60
2023-05-19T15:01:43.969Z,100855.40
2023-05-19T15:04:21.177Z,100855.80
2023-05-19T15:07:09.789Z,100855.80
2023-05-19T15:09:46.843Z,100850.80
2023-05-19T15:12:23.725Z,100846.40
2023-05-19T15:15:02.867Z,100848.00
2023-05-19T15:17:39.271Z,100844.00
2023-05-19T15:20:20.184Z,100843.20
2023-05-19T15:22:56.370Z,100844.40
2023-05-19T15:25:33.544Z,100839.80
2023-05-19T15:28:11.372Z,100837.80
2023-05-19T15:30:48.661Z,100835.80
2023-05-19T15:33:26.596Z,100832.00
2023-05-19T15:36:03.643Z,100828.80
2023-05-19T15:38:43.202Z,100825.20
2023-05-19T15:41:22.086Z,100825.20
2023-05-19T15:44:00.464Z,100823.60
2023-05-19T15:46:38.102Z,100823.80
2023-05-19T15:49:14.813Z,100820.60
2023-05-19T15:51:52.079Z,100818.00
2023-05-19T15:54:28.887Z,100815.20
2023-05-19T15:57:06.910Z,100809.60
2023-05-19T15:59:44.008Z,100805.60
2023-05-19T16:02:20.945Z,100805.00
2023-05-19T16:04:58.370Z,100808.40
2023-05-19T16:07:35.758Z,100801.00
2023-05-19T16:10:16.231Z,100797.40
2023-05-19T16:12:53.586Z,100798.00
2023-05-19T16:15:30.476Z,100797.20
2023-05-19T16:18:13.636Z,100793.60
2023-05-19T16:20:50.226Z,100792.60
2023-05-19T16:23:27.679Z,100791.60
2023-05-19T16:26:05.973Z,100788.60
2023-05-19T16:28:42.125Z,100784.40
2023-05-19T16:31:18.377Z,100778.80
2023-05-19T16:33:55.400Z,100773.00
2023-05-19T16:36:33.797Z,100766.60
2023-05-19T16:39:12.097Z,100768.80
2023-05-19T16:41:49.412Z,100766.60
2023-05-19T16:44:27.634Z,100760.80
2023-05-19T16:47:04.479Z,100760.40
2023-05-19T16:49:42.598Z,100757.40
2023-05-19T16:52:20.954Z,100751.20
2023-05-19T16:54:58.475Z,100745.60
2023-05-19T16:57:35.248Z,100747.80
2023-05-19T17:00:18.947Z,100737.60
2023-05-19T17:02:57.172Z,100736.40
2023-05-19T17:05:34.186Z,100729.80
2023-05-19T17:08:13.066Z,100727.60
2023-05-19T17:10:52.614Z,100727.40
2023-05-19T17:13:30.080Z,100732.20
2023-05-19T17:16:07.423Z,100731.80
2023-05-19T17:18:44.382Z,100739.00
2023-05-19T17:21:21.860Z,100737.60
2023-05-19T17:23:59.882Z,100740.20
2023-05-19T17:26:37.484Z,100739.60
2023-05-19T17:29:14.870Z,100743.80
2023-05-19T17:31:51.426Z,100737.80
2023-05-19T17:34:28.536Z,100743.40
2023-05-19T17:37:06.065Z,100744.80
2023-05-19T17:39:43.403Z,100746.20
2023-05-19T17:42:21.076Z,100753.00
2023-05-19T17:44:57.990Z,100749.80
2023-05-19T17:47:35.900Z,100748.40
2023-05-19T17:50:17.066Z,100744.00
2023-05-19T17:52:57.623Z,100741.40
2023-05-19T17:55:42.800Z,100745.20
2023-05-19T17:58:24.005Z,100744.60
2023-05-19T18:01:03.843Z,100748.20
2023-05-19T18:03:49.703Z,100751.60
2023-05-19T18:06:35.162Z,100752.00
2023-05-19T18:09:15.164Z,100753.40
2023-05-19T18:11:52.063Z,100761.40
2023-05-19T18:14:29.899Z,100761.20
2023-05-19T18:17:09.950Z,100763.40
2023-05-19T18:19:49.615Z,100766.80
2023-05-19T18:22:26.902Z,100765.20
2023-05-19T18:25:03.052Z,100763.40
2023-05-19T18:27:40.026Z,100764.80
2023-05-19T18:30:19.592Z,100765.00
2023-05-19T18:32:56.819Z,100761.40
2023-05-19T18:35:35.296Z,100764.20
2023-05-19T18:38:12.787Z,100763.20
2023-05-19T18:40:51.827Z,100765.00
2023-05-19T18:43:30.661Z,100770.40
2023-05-19T18:46:09.346Z,100771.80
2023-05-19T18:48:45.984Z,100776.80
2023-05-19T18:51:23.774Z,100779.40
2023-05-19T18:54:03.019Z,100780.20
2023-05-19T18:56:42.423Z,100775.80
2023-05-19T18:59:20.180Z,100780.80
2023-05-19T19:02:03.590Z,100774.80
2023-05-19T19:04:41.167Z,100772.00
2023-05-19T19:07:18.823Z,100773.40
2023-05-19T19:09:57.274Z,100779.00
2023-05-19T19:12:40.564Z,100782.40
2023-05-19T19:15:31.373Z,100786.20
2023-05-19T19:18:09.764Z,100790.20
2023-05-19T19:20:54.411Z,100788.40
2023-05-19T19:23:32.832Z,100793.80
2023-05-19T19:26:14.986Z,100786.40
2023-05-19T19:28:52.237Z,100787.00
2023-05-19T19:31:37.878Z,100793.60
2023-05-19T19:34:17.266Z,100794.20
2023-05-19T19:36:56.529Z,100796.40
2023-05-19T19:39:33.061Z,100798.60
2023-05-19T19:42:11.468Z,100800.60
2023-05-19T19:44:49.682Z,100797.20
2023-05-19T19:47:29.779Z,100794.40
2023-05-19T19:50:09.020Z,100796.40
2023-05-19T19:52:52.908Z,100797.00
2023-05-19T19:55:33.849Z,100801.80
2023-05-19T19:58:12.324Z,100801.20
2023-05-19T20:00:55.585Z,100797.80
2023-05-19T20:03:41.090Z,100796.00
2023-05-19T20:06:19.132Z,100799.60
2023-05-19T20:08:58.476Z,100802.20
2023-05-19T20:11:42.989Z,100807.00
2023-05-19T20:14:21.559Z,100801.20
2023-05-19T20:17:01.143Z,100800.80
2023-05-19T20:19:40.644Z,100803.00
2023-05-19T20:22:24.536Z,100802.20
2023-05-19T20:25:04.662Z,100798.00
2023-05-19T20:27:44.053Z,100799.80
2023-05-19T20:30:26.713Z,100796.20
2023-05-19T20:33:04.366Z,100792.20
2023-05-19T20:35:43.725Z,100784.20
2023-05-19T20:38:23.225Z,100788.40
2023-05-19T20:41:03.210Z,100792.40
2023-05-19T20:43:42.563Z,100789.60
2023-05-19T20:46:22.285Z,100788.60
2023-05-19T20:49:00.601Z,100788.80
2023-05-19T20:51:37.173Z,100787.60
2023-05-19T20:54:15.185Z,100789.20
2023-05-19T20:56:54.250Z,100784.00
2023-05-19T20:59:31.393Z,100783.80
2023-05-19T21:02:08.887Z,100777.20
2023-05-19T21:04:47.607Z,100766.20
2023-05-19T21:07:25.836Z,100767.40
2023-05-19T21:10:13.687Z,100766.00
2023-05-19T21:12:51.467Z,100770.80
2023-05-19T21:15:30.182Z,100772.40
2023-05-19T21:18:07.811Z,100770.60
2023-05-19T21:20:46.603Z,100772.20
2023-05-19T21:23:24.417Z,100771.80
2023-05-19T21:26:02.414Z,100769.80
2023-05-19T21:28:39.882Z,100772.80
2023-05-19T21:31:17.744Z,100763.60
2023-05-19T21:33:56.572Z,100764.80
2023-05-19T21:36:34.832Z,100763.00
2023-05-19T21:39:13.145Z,100755.00
2023-05-19T21:41:52.178Z,100750.40
2023-05-19T21:44:32.744Z,100752.60
2023-05-19T21:47:11.368Z,100756.20
2023-05-19T21:49:51.525Z,100762.00
2023-05-19T21:52:31.050Z,100762.40
2023-05-19T21:55:15.736Z,100756.80
2023-05-19T21:57:56.085Z,100760.20
2023-05-19T22:00:34.691Z,100761.20
2023-05-19T22:03:14.163Z,100762.00
2023-05-19T22:05:59.800Z,100766.60
2023-05-19T22:08:41.147Z,100765.00
2023-05-19T22:11:21.568Z,100766.20
2023-05-19T22:14:00.903Z,100758.00
2023-05-19T22:16:41.102Z,100764.80
2023-05-19T22:19:21.650Z,100762.60
2023-05-19T22:22:12.594Z,100757.60
2023-05-19T22:24:52.224Z,100758.20
2023-05-19T22:27:32.486Z,100757.00
2023-05-19T22:30:16.683Z,100756.00
2023-05-19T22:32:58.587Z,100753.00
2023-05-19T22:35:43.952Z,100747.60
2023-05-19T22:38:23.518Z,100751.80
2023-05-19T22:41:03.037Z,100750.20
2023-05-19T22:43:43.704Z,100753.00
2023-05-19T22:46:24.772Z,100757.00
2023-05-19T22:49:05.059Z,100759.40
2023-05-19T22:51:44.577Z,100758.00
2023-05-19T22:54:25.169Z,100755.60
2023-05-19T22:57:06.325Z,100762.80
2023-05-19T22:59:47.003Z,100752.20
2023-05-19T23:02:29.723Z,100752.60
2023-05-19T23:05:09.457Z,100741.20
2023-05-19T23:07:48.381Z,100735.20
2023-05-19T23:10:29.305Z,100736.00
2023-05-19T23:13:08.997Z,100735.20
2023-05-19T23:15:48.026Z,100731.80
2023-05-19T23:18:27.159Z,100734.40
2023-05-19T23:21:07.387Z,100727.40
2023-05-19T23:23:45.928Z,100717.00
2023-05-19T23:26:25.344Z,100710.40
2023-05-19T23:29:04.299Z,100711.60
2023-05-19T23:31:44.734Z,100699.80
2023-05-19T23:34:25.085Z,100707.80
2023-05-19T23:37:10.606Z,100709.20
2023-05-19T23:39:52.791Z,100705.20
2023-05-19T23:42:32.859Z,100700.60
2023-05-19T23:45:20.665Z,100706.60
2023-05-19T23:47:59.106Z,100697.00
2023-05-19T23:50:39.164Z,100710.20
2023-05-19T23:53:18.909Z,100707.40
2023-05-19T23:55:58.691Z,100701.00
2023-05-19T23:58:38.771Z,100707.80
